No data was retrieved for https://query.yahooapis.com/v1/public/yql?q=select+%2A+from+weather.forecast+where+woeid%3D860853&format=xml&u=c



Visit our other weather sites:

Template documentation
and downloads

And another site



Nearby METAR Reports

   
EBAW - Antwerp
Updated: 20-10-2019 19:20
Mostly Cloudy  
Mostly Cloudy  
   Wind: NE 1.5 m/s
Wind: NE 1.5 m/s
Temperature: 12°C
Dew Point: 10°C
Humidity: 88%
Barometer: 1009 hPa
Clouds: Mostly Cloudy
Visibility: More than 10 km
Cloud details: Mostly Cloudy 4300 ft
EBAW 201720Z 04003KT 350V070 9999 BKN043 12/10 Q1009 NOSIG
EBLG - Liège
Updated: 20-10-2019 19:20
Mist, Mostly Cloudy  
Mist, Mostly Cloudy  
   Wind: NNE 4.6 m/s
Wind: NNE 4.6 m/s
Temperature: 10°C
Wind Chill: 8°C
Dew Point: 9°C
Humidity: 94%
Barometer: 1008 hPa
Clouds: Mostly Cloudy
Visibility: 4 km
Cloud details: Partly Cloudy 300 ft,
Mostly Cloudy 400 ft
EBLG 201720Z 03009KT 3600 BR SCT003 BKN004 10/09 Q1008 TEMPO 2500 RA BKN003
EBCV - Mons/Bergen
Updated: 20-10-2019 19:25
Overcast  
Overcast  
   Wind: NE 4.1 m/s
Wind: NE 4.1 m/s
Temperature: 11°C
Dew Point: 9°C
Humidity: 88%
Barometer: 1009 hPa
Clouds: Overcast
Visibility: More than 10 km
Cloud details: Overcast 4800 ft
EBCV 201725Z AUTO 04008KT 9999 OVC048/// 11/09 Q1009 BLU
EHBK - Maastricht
Updated: 20-10-2019 19:25
Light Drizzle, Rain, Overcast  
Light Drizzle, Rain, Overcast  
   Wind: NNE 5.7 m/s
Wind: NNE 5.7 m/s
Temperature: 11°C
Dew Point: 10°C
Humidity: 94%
Barometer: 1008 hPa
Clouds: Overcast
Visibility: More than 10 km
Cloud details: Overcast 700 ft
EHBK 201725Z AUTO 03011KT 9999 -DZRA OVC007 11/10 Q1008 BECMG 4000 -RADZ TEMPO BKN004
ELLX - Luxemburg
Updated: 20-10-2019 19:20
Light Rain, Mostly Cloudy  
Light Rain, Mostly Cloudy  
   Wind: SE 2.6 m/s
Wind: SE 2.6 m/s
Temperature: 14°C
Dew Point: 13°C
Humidity: 94%
Barometer: 1007 hPa
Clouds: Mostly Cloudy
Visibility: 8 km
Cloud details: Few Clouds 100 ft,
Partly Cloudy 300 ft,
Mostly Cloudy 5000 ft
ELLX 201720Z 13005KT 8000 -RA FEW001 SCT003 BKN050 14/13 Q1007 BECMG 4000 RA BKN005
EBOS - Oostende
Updated: 20-10-2019 19:20
Partly Cloudy  
Partly Cloudy  
   Wind: NNE 5.1 m/s
Wind: NNE 5.1 m/s
Temperature: 13°C
Dew Point: 9°C
Humidity: 77%
Barometer: 1010 hPa
Clouds: Partly Cloudy
Visibility: More than 10 km
Cloud details: Partly Cloudy 2000 ft
EBOS 201720Z 03010KT 9999 SCT020 13/09 Q1010 NOSIG

Script developed by  Saratoga-weather.org Adapted for the template by  Weerstation Leuven

You find our weather info also at:

Weather Underground

Equipment we use:

Weather-station
Davis Vantage Vue

Weather-program
WeatherCat

Provider
one.com

Davis Vantage Vue

WeatherCat

one.com